createdAt,value
2022-09-02T08:41:32.819Z,99.90
2022-09-02T08:44:02.379Z,99.90
2022-09-02T08:46:32.008Z,99.90
2022-09-02T08:49:13.643Z,99.90
2022-09-02T08:54:36.447Z,99.90
2022-09-02T08:57:03.356Z,99.90
2022-09-02T08:59:31.534Z,99.90
2022-09-02T09:02:20.374Z,99.90
2022-09-02T09:05:20.754Z,99.90
2022-09-02T09:08:13.921Z,99.90
2022-09-02T09:11:21.015Z,99.90
2022-09-02T09:14:15.644Z,99.90
2022-09-02T09:16:59.381Z,99.90
2022-09-02T09:19:45.927Z,99.90
2022-09-02T09:22:15.807Z,99.90
2022-09-02T09:24:45.260Z,99.90
2022-09-02T09:27:20.764Z,99.90
2022-09-02T09:29:49.292Z,99.90
2022-09-02T09:32:25.627Z,99.90
2022-09-02T09:34:52.313Z,99.90
2022-09-02T09:37:40.868Z,99.90
2022-09-02T09:40:23.036Z,99.90
2022-09-02T09:42:59.767Z,99.90
2022-09-02T09:45:44.244Z,99.90
2022-09-02T09:48:13.936Z,99.90
2022-09-02T09:53:35.481Z,99.90
2022-09-02T09:56:07.592Z,99.90
2022-09-02T09:58:40.064Z,99.90
2022-09-02T10:01:21.685Z,99.90
2022-09-02T10:04:12.206Z,99.90
2022-09-02T10:06:48.818Z,99.90
2022-09-02T10:09:15.387Z,99.90
2022-09-02T10:12:06.403Z,99.90
2022-09-02T10:14:46.096Z,99.90
2022-09-02T10:31:53.442Z,99.10
2022-09-02T10:34:48.907Z,99.90
2022-09-02T10:39:54.973Z,99.90
2022-09-02T10:42:38.773Z,97.30
2022-09-02T10:45:17.855Z,97.60
2022-09-02T10:48:09.373Z,96.60
2022-09-02T10:50:50.150Z,96.30
2022-09-02T10:53:44.175Z,96.20
2022-09-02T10:56:13.914Z,94.80
2022-09-02T11:01:44.474Z,94.00
2022-09-02T11:04:26.036Z,93.30
2022-09-02T11:07:03.686Z,94.70
2022-09-02T11:09:56.559Z,94.10
2022-09-02T11:12:32.876Z,93.70
2022-09-02T11:15:22.180Z,94.00
2022-09-02T11:18:10.358Z,93.40
2022-09-02T11:20:47.240Z,93.30
2022-09-02T11:23:25.365Z,92.80
2022-09-02T11:26:09.992Z,92.40
2022-09-02T11:28:54.428Z,92.70
2022-09-02T11:31:38.898Z,92.90
2022-09-02T11:34:35.393Z,92.30
2022-09-02T11:45:33.297Z,90.90
2022-09-02T11:48:29.457Z,91.20
2022-09-02T11:51:23.530Z,92.00
2022-09-02T11:53:54.935Z,91.00
2022-09-02T11:56:35.152Z,91.50
2022-09-02T11:59:01.726Z,90.50
2022-09-02T12:01:50.757Z,90.60
2022-09-02T12:07:12.793Z,90.60
2022-09-02T12:12:36.876Z,91.20
2022-09-02T12:15:04.838Z,91.00
2022-09-02T12:17:39.998Z,91.20
2022-09-02T12:20:10.054Z,92.00
2022-09-02T12:22:40.868Z,90.80
2022-09-02T12:25:38.502Z,91.10
2022-09-02T12:28:26.336Z,90.60
2022-09-02T12:30:56.379Z,89.10
2022-09-02T12:33:30.834Z,89.40
2022-09-02T12:35:59.020Z,89.40
2022-09-02T12:38:27.944Z,90.00
2022-09-02T12:41:05.586Z,90.00
2022-09-02T12:43:53.435Z,90.20
2022-09-02T12:46:36.704Z,89.70
2022-09-02T12:49:34.461Z,87.70
2022-09-02T12:52:12.495Z,88.90
2022-09-02T12:54:38.997Z,90.20
2022-09-02T12:57:08.243Z,90.00
2022-09-02T12:59:38.162Z,90.10
2022-09-02T13:02:35.167Z,88.90
2022-09-02T13:05:20.372Z,89.10
2022-09-02T13:08:02.613Z,89.20
2022-09-02T13:10:56.188Z,90.00
2022-09-02T13:13:41.635Z,86.90
2022-09-02T13:16:21.435Z,89.60
2022-09-02T13:19:10.879Z,87.40
2022-09-02T13:22:14.488Z,88.70
2022-09-02T13:24:59.264Z,87.30
2022-09-02T13:27:49.389Z,86.20
2022-09-02T13:30:32.251Z,86.00
2022-09-02T13:33:07.199Z,87.20
2022-09-02T13:35:38.291Z,85.80
2022-09-02T13:38:05.489Z,86.10
2022-09-02T13:40:34.556Z,85.90
2022-09-02T13:43:21.841Z,85.40
2022-09-02T13:45:51.102Z,84.60
2022-09-02T13:48:22.806Z,85.90
2022-09-02T13:50:51.763Z,85.20
2022-09-02T13:53:49.412Z,82.80
2022-09-02T13:56:30.761Z,83.70
2022-09-02T13:58:57.439Z,82.90
2022-09-02T14:01:29.394Z,83.00
2022-09-02T14:03:58.687Z,83.90
2022-09-02T14:06:36.546Z,85.10
2022-09-02T14:09:07.642Z,84.20
2022-09-02T14:11:42.870Z,84.80
2022-09-02T14:14:15.109Z,81.70
2022-09-02T14:16:41.660Z,82.90
2022-09-02T14:19:22.636Z,84.00
2022-09-02T14:21:58.522Z,83.80
2022-09-02T14:24:28.117Z,84.10
2022-09-02T14:26:59.696Z,85.60
2022-09-02T14:29:29.536Z,85.10
2022-09-02T14:32:13.664Z,85.20
2022-09-02T14:34:47.668Z,86.40
2022-09-02T14:37:47.520Z,86.70
2022-09-02T14:40:14.474Z,86.90
2022-09-02T15:16:03.417Z,87.50
2022-09-02T15:18:30.407Z,87.60
2022-09-02T15:20:57.624Z,87.40
2022-09-02T15:23:24.755Z,89.10
2022-09-02T15:25:53.179Z,89.10
2022-09-02T15:28:19.786Z,88.30
2022-09-02T15:30:46.385Z,95.70
2022-09-02T15:35:44.364Z,89.70
2022-09-02T15:38:10.942Z,95.80
2022-09-02T15:43:04.484Z,89.70
2022-09-02T15:45:31.204Z,90.30
2022-09-02T15:47:58.803Z,90.40
2022-09-02T15:52:56.101Z,91.80
2022-09-02T15:55:29.008Z,89.40
2022-09-02T15:57:56.456Z,90.00
2022-09-02T16:00:23.551Z,90.10
2022-09-02T16:02:54.654Z,90.10
2022-09-02T16:05:21.288Z,90.20
2022-09-02T16:10:15.210Z,89.70
2022-09-02T16:12:42.051Z,90.60
2022-09-02T16:17:36.180Z,90.40
2022-09-02T16:20:04.756Z,91.10
2022-09-02T16:22:31.393Z,90.70
2022-09-02T16:27:43.551Z,90.10
2022-09-02T16:30:10.531Z,90.10
2022-09-02T16:32:37.782Z,90.10
2022-09-02T16:35:04.617Z,92.40
2022-09-02T16:39:58.418Z,90.60
2022-09-02T16:42:25.952Z,91.30
2022-09-02T16:47:19.963Z,91.40
2022-09-02T16:49:46.591Z,92.00
2022-09-02T16:52:13.235Z,92.20
2022-09-02T16:54:40.944Z,92.00
2022-09-02T16:59:35.893Z,92.30
2022-09-02T17:02:02.559Z,92.60
2022-09-02T17:04:29.607Z,93.10
2022-09-02T17:06:56.634Z,92.90
2022-09-02T17:09:23.223Z,92.80
2022-09-02T17:11:50.006Z,93.50
2022-09-02T17:14:21.518Z,93.50
2022-09-02T17:16:50.963Z,95.10
2022-09-02T17:19:22.758Z,99.90
2022-09-02T17:21:54.190Z,99.90
2022-09-02T17:24:23.612Z,99.90
2022-09-02T17:29:47.484Z,94.20
2022-09-02T17:32:07.732Z,94.90
2022-09-02T17:34:34.489Z,95.30
2022-09-02T17:37:01.177Z,95.60
2022-09-02T17:39:28.080Z,95.90
2022-09-02T17:41:54.740Z,95.50
2022-09-02T17:44:24.273Z,95.80
2022-09-02T17:46:51.694Z,95.90
2022-09-02T17:49:18.735Z,96.30
2022-09-02T17:51:46.563Z,96.50
2022-09-02T17:54:14.104Z,96.90
2022-09-02T17:56:46.133Z,99.00
2022-09-02T17:59:20.561Z,99.40
2022-09-02T18:02:11.416Z,99.90
2022-09-02T18:04:55.627Z,97.50
2022-09-02T18:07:53.446Z,97.80
2022-09-02T18:10:20.372Z,98.00
2022-09-02T18:12:48.125Z,98.50
2022-09-02T18:15:18.723Z,99.90
2022-09-02T18:17:52.490Z,99.90
2022-09-02T18:20:43.446Z,99.00
2022-09-02T18:23:23.355Z,99.40
2022-09-02T18:26:19.849Z,99.30
2022-09-02T18:29:12.407Z,99.70
2022-09-02T18:31:57.196Z,99.90
2022-09-02T18:37:32.786Z,99.90
2022-09-02T18:40:29.379Z,99.90
2022-09-02T18:43:19.737Z,99.90
2022-09-02T18:45:56.383Z,99.90
2022-09-02T18:48:34.388Z,99.90
2022-09-02T18:51:03.846Z,99.90
2022-09-02T18:56:06.101Z,99.90
2022-09-02T18:58:46.866Z,99.90
2022-09-02T19:01:26.162Z,99.90
2022-09-02T19:03:53.053Z,99.90
2022-09-02T19:06:24.975Z,99.90
2022-09-02T19:08:58.401Z,99.90
2022-09-02T19:46:44.051Z,99.90
2022-09-02T19:49:02.397Z,99.90
2022-09-02T19:51:28.980Z,99.90
2022-09-02T19:53:56.517Z,99.90
2022-09-02T19:56:23.281Z,99.90
2022-09-02T19:58:49.969Z,99.90
2022-09-02T20:01:16.672Z,99.90
2022-09-02T20:03:43.356Z,99.90
2022-09-02T20:06:09.893Z,99.90
2022-09-02T20:08:36.611Z,99.90
2022-09-02T20:11:05.111Z,99.90
2022-09-02T20:13:41.094Z,99.90
2022-09-02T20:16:17.142Z,99.90
2022-09-02T20:18:48.290Z,99.90
2022-09-02T20:21:31.019Z,99.90
2022-09-02T20:24:07.164Z,99.90
2022-09-02T20:26:50.172Z,99.90
2022-09-02T20:29:47.827Z,99.90
2022-09-02T20:32:35.316Z,99.90
2022-09-02T20:35:44.829Z,99.90
2022-09-02T20:38:20.036Z,99.90
2022-09-02T20:41:10.735Z,99.90
2022-09-02T20:43:45.271Z,99.90
2022-09-02T20:46:33.776Z,99.90
2022-09-02T20:49:27.307Z,99.90
2022-09-02T20:54:40.554Z,99.90
2022-09-02T21:10:03.980Z,99.90
2022-09-02T21:22:53.598Z,99.90
2022-09-02T21:25:38.039Z,99.90
2022-09-02T21:28:18.709Z,99.90
2022-09-02T21:30:50.933Z,99.90
2022-09-02T21:33:18.101Z,99.90
2022-09-02T21:35:56.449Z,99.90
2022-09-02T21:38:42.317Z,99.90
2022-09-02T21:44:11.295Z,99.90
2022-09-02T21:47:06.399Z,99.90
2022-09-02T21:50:30.032Z,99.90
2022-09-02T21:55:57.104Z,99.90
2022-09-02T22:04:31.284Z,99.90
2022-09-02T22:07:21.916Z,99.90
2022-09-02T22:10:01.184Z,99.90
2022-09-02T22:12:28.417Z,99.90
2022-09-02T22:17:33.189Z,99.90
2022-09-02T22:20:02.439Z,99.90
2022-09-02T22:22:38.824Z,99.90
2022-09-02T22:25:10.117Z,99.90
2022-09-02T22:27:46.906Z,99.90
2022-09-02T22:30:14.862Z,99.90
2022-09-02T22:32:47.923Z,99.90
2022-09-02T22:35:45.068Z,99.90
2022-09-02T22:38:26.572Z,99.90
2022-09-02T22:41:03.294Z,99.90
2022-09-02T22:52:10.764Z,99.90
2022-09-02T22:54:37.608Z,99.90
2022-09-02T23:02:31.855Z,99.90
2022-09-02T23:05:46.772Z,99.90
2022-09-02T23:11:07.018Z,99.90
2022-09-02T23:13:35.583Z,99.90
2022-09-02T23:19:17.257Z,99.90
2022-09-02T23:27:43.942Z,99.90
2022-09-02T23:30:12.093Z,99.90
2022-09-02T23:33:03.559Z,99.90
2022-09-02T23:35:48.096Z,99.90
2022-09-02T23:41:07.807Z,99.90
2022-09-02T23:43:34.704Z,99.90
2022-09-02T23:46:28.161Z,99.90
2022-09-02T23:49:10.027Z,99.90
2022-09-02T23:52:01.984Z,99.90
2022-09-02T23:54:50.764Z,99.90
2022-09-02T23:57:45.876Z,99.90
